sensor_id;sensor_type;location;lat;lon;timestamp;P1;durP1;ratioP1;P2;durP2;ratioP2
14104;SDS011;7130;52.484;4.766;2022-07-29T00:00:56;3.22;;;1.75;;
14104;SDS011;7130;52.484;4.766;2022-07-29T00:03:24;3.00;;;1.55;;
14104;SDS011;7130;52.484;4.766;2022-07-29T00:05:51;3.58;;;1.60;;
14104;SDS011;7130;52.484;4.766;2022-07-29T00:08:20;2.05;;;1.35;;
14104;SDS011;7130;52.484;4.766;2022-07-29T00:10:47;2.50;;;1.37;;
14104;SDS011;7130;52.484;4.766;2022-07-29T00:13:14;2.78;;;1.50;;
14104;SDS011;7130;52.484;4.766;2022-07-29T00:15:41;2.35;;;1.33;;
14104;SDS011;7130;52.484;4.766;2022-07-29T00:18:08;3.03;;;1.40;;
14104;SDS011;7130;52.484;4.766;2022-07-29T00:20:35;2.73;;;1.37;;
14104;SDS011;7130;52.484;4.766;2022-07-29T00:23:02;3.55;;;1.60;;
14104;SDS011;7130;52.484;4.766;2022-07-29T00:25:31;3.42;;;1.50;;
14104;SDS011;7130;52.484;4.766;2022-07-29T00:27:58;3.03;;;1.25;;
14104;SDS011;7130;52.484;4.766;2022-07-29T00:30:25;3.35;;;1.35;;
14104;SDS011;7130;52.484;4.766;2022-07-29T00:32:52;2.78;;;1.38;;
14104;SDS011;7130;52.484;4.766;2022-07-29T00:35:19;2.42;;;1.35;;
14104;SDS011;7130;52.484;4.766;2022-07-29T00:38:04;3.55;;;1.50;;
14104;SDS011;7130;52.484;4.766;2022-07-29T00:40:32;2.80;;;1.60;;
14104;SDS011;7130;52.484;4.766;2022-07-29T00:42:59;4.50;;;1.58;;
14104;SDS011;7130;52.484;4.766;2022-07-29T00:45:27;4.40;;;1.50;;
14104;SDS011;7130;52.484;4.766;2022-07-29T00:47:54;3.05;;;1.60;;
14104;SDS011;7130;52.484;4.766;2022-07-29T00:50:22;3.20;;;1.30;;
14104;SDS011;7130;52.484;4.766;2022-07-29T00:52:49;3.33;;;1.50;;
14104;SDS011;7130;52.484;4.766;2022-07-29T00:55:17;2.60;;;1.42;;
14104;SDS011;7130;52.484;4.766;2022-07-29T00:57:45;3.22;;;1.58;;
14104;SDS011;7130;52.484;4.766;2022-07-29T01:00:14;4.03;;;1.80;;
14104;SDS011;7130;52.484;4.766;2022-07-29T01:02:42;2.80;;;1.50;;
14104;SDS011;7130;52.484;4.766;2022-07-29T01:05:09;2.83;;;1.50;;
14104;SDS011;7130;52.484;4.766;2022-07-29T01:07:37;3.47;;;1.50;;
14104;SDS011;7130;52.484;4.766;2022-07-29T01:10:06;2.27;;;1.50;;
14104;SDS011;7130;52.484;4.766;2022-07-29T01:12:33;2.63;;;1.30;;
14104;SDS011;7130;52.484;4.766;2022-07-29T01:15:03;2.45;;;1.60;;
14104;SDS011;7130;52.484;4.766;2022-07-29T01:17:34;2.63;;;1.58;;
14104;SDS011;7130;52.484;4.766;2022-07-29T01:20:05;2.10;;;1.20;;
14104;SDS011;7130;52.484;4.766;2022-07-29T01:22:36;3.35;;;1.33;;
14104;SDS011;7130;52.484;4.766;2022-07-29T01:25:12;2.50;;;1.63;;
14104;SDS011;7130;52.484;4.766;2022-07-29T01:27:47;3.28;;;1.80;;
14104;SDS011;7130;52.484;4.766;2022-07-29T01:30:19;2.22;;;1.67;;
14104;SDS011;7130;52.484;4.766;2022-07-29T01:32:47;2.50;;;1.40;;
14104;SDS011;7130;52.484;4.766;2022-07-29T01:35:17;2.38;;;1.48;;
14104;SDS011;7130;52.484;4.766;2022-07-29T01:37:47;3.03;;;1.63;;
14104;SDS011;7130;52.484;4.766;2022-07-29T01:40:18;2.55;;;1.42;;
14104;SDS011;7130;52.484;4.766;2022-07-29T01:42:48;2.10;;;1.50;;
14104;SDS011;7130;52.484;4.766;2022-07-29T01:45:17;3.40;;;1.90;;
14104;SDS011;7130;52.484;4.766;2022-07-29T01:47:49;3.75;;;1.65;;
14104;SDS011;7130;52.484;4.766;2022-07-29T01:50:20;2.75;;;1.58;;
14104;SDS011;7130;52.484;4.766;2022-07-29T01:52:52;3.60;;;1.70;;
14104;SDS011;7130;52.484;4.766;2022-07-29T01:55:21;2.97;;;1.40;;
14104;SDS011;7130;52.484;4.766;2022-07-29T01:57:51;2.72;;;1.60;;
14104;SDS011;7130;52.484;4.766;2022-07-29T02:00:18;3.20;;;1.60;;
14104;SDS011;7130;52.484;4.766;2022-07-29T02:02:45;2.17;;;1.38;;
14104;SDS011;7130;52.484;4.766;2022-07-29T02:05:15;3.92;;;1.65;;
14104;SDS011;7130;52.484;4.766;2022-07-29T02:07:42;3.50;;;1.90;;
14104;SDS011;7130;52.484;4.766;2022-07-29T02:10:10;2.88;;;1.60;;
14104;SDS011;7130;52.484;4.766;2022-07-29T02:12:38;2.92;;;1.70;;
14104;SDS011;7130;52.484;4.766;2022-07-29T02:15:07;3.25;;;1.95;;
14104;SDS011;7130;52.484;4.766;2022-07-29T02:17:35;3.25;;;1.90;;
14104;SDS011;7130;52.484;4.766;2022-07-29T02:20:06;2.55;;;1.60;;
14104;SDS011;7130;52.484;4.766;2022-07-29T02:22:37;3.53;;;1.70;;
14104;SDS011;7130;52.484;4.766;2022-07-29T02:25:04;3.77;;;1.77;;
14104;SDS011;7130;52.484;4.766;2022-07-29T02:27:33;2.83;;;1.90;;
14104;SDS011;7130;52.484;4.766;2022-07-29T02:30:00;2.63;;;1.73;;
14104;SDS011;7130;52.484;4.766;2022-07-29T02:32:28;3.40;;;1.67;;
14104;SDS011;7130;52.484;4.766;2022-07-29T02:34:56;3.67;;;2.30;;
14104;SDS011;7130;52.484;4.766;2022-07-29T02:37:23;4.03;;;2.20;;
14104;SDS011;7130;52.484;4.766;2022-07-29T02:39:53;2.95;;;2.30;;
14104;SDS011;7130;52.484;4.766;2022-07-29T02:42:21;3.40;;;2.10;;
14104;SDS011;7130;52.484;4.766;2022-07-29T02:44:48;3.70;;;2.47;;
14104;SDS011;7130;52.484;4.766;2022-07-29T02:47:17;4.95;;;2.90;;
14104;SDS011;7130;52.484;4.766;2022-07-29T02:49:47;5.55;;;3.63;;
14104;SDS011;7130;52.484;4.766;2022-07-29T02:52:18;5.22;;;4.60;;
14104;SDS011;7130;52.484;4.766;2022-07-29T02:54:47;11.23;;;10.15;;
14104;SDS011;7130;52.484;4.766;2022-07-29T02:57:20;10.43;;;9.60;;
14104;SDS011;7130;52.484;4.766;2022-07-29T02:59:49;8.27;;;7.65;;
14104;SDS011;7130;52.484;4.766;2022-07-29T03:02:17;6.27;;;5.67;;
14104;SDS011;7130;52.484;4.766;2022-07-29T03:04:44;5.30;;;4.80;;
14104;SDS011;7130;52.484;4.766;2022-07-29T03:07:13;4.28;;;2.97;;
14104;SDS011;7130;52.484;4.766;2022-07-29T03:09:41;4.03;;;2.72;;
14104;SDS011;7130;52.484;4.766;2022-07-29T03:12:09;3.77;;;2.70;;
14104;SDS011;7130;52.484;4.766;2022-07-29T03:14:38;4.60;;;2.70;;
14104;SDS011;7130;52.484;4.766;2022-07-29T03:17:05;5.53;;;2.78;;
14104;SDS011;7130;52.484;4.766;2022-07-29T03:19:32;3.05;;;2.40;;
14104;SDS011;7130;52.484;4.766;2022-07-29T03:22:00;3.42;;;2.50;;
14104;SDS011;7130;52.484;4.766;2022-07-29T03:24:28;3.30;;;2.37;;
14104;SDS011;7130;52.484;4.766;2022-07-29T03:26:56;3.72;;;2.65;;
14104;SDS011;7130;52.484;4.766;2022-07-29T03:29:23;3.35;;;2.33;;
14104;SDS011;7130;52.484;4.766;2022-07-29T03:31:52;3.15;;;2.17;;
14104;SDS011;7130;52.484;4.766;2022-07-29T03:34:19;3.92;;;2.42;;
14104;SDS011;7130;52.484;4.766;2022-07-29T03:36:46;3.05;;;2.20;;
14104;SDS011;7130;52.484;4.766;2022-07-29T03:39:14;4.25;;;2.28;;
14104;SDS011;7130;52.484;4.766;2022-07-29T03:41:42;4.10;;;2.40;;
14104;SDS011;7130;52.484;4.766;2022-07-29T03:44:10;2.78;;;2.13;;
14104;SDS011;7130;52.484;4.766;2022-07-29T03:46:38;4.68;;;2.00;;
14104;SDS011;7130;52.484;4.766;2022-07-29T03:49:07;3.22;;;2.42;;
14104;SDS011;7130;52.484;4.766;2022-07-29T03:51:35;4.22;;;2.42;;
14104;SDS011;7130;52.484;4.766;2022-07-29T03:54:03;3.53;;;2.10;;
14104;SDS011;7130;52.484;4.766;2022-07-29T03:56:32;3.88;;;2.45;;
14104;SDS011;7130;52.484;4.766;2022-07-29T03:58:59;4.93;;;2.58;;
14104;SDS011;7130;52.484;4.766;2022-07-29T04:01:27;3.95;;;2.60;;
14104;SDS011;7130;52.484;4.766;2022-07-29T04:03:55;4.00;;;2.50;;
14104;SDS011;7130;52.484;4.766;2022-07-29T04:06:24;5.57;;;2.70;;
14104;SDS011;7130;52.484;4.766;2022-07-29T04:08:51;5.93;;;3.08;;
14104;SDS011;7130;52.484;4.766;2022-07-29T04:11:18;3.55;;;2.80;;
14104;SDS011;7130;52.484;4.766;2022-07-29T04:13:45;3.45;;;2.88;;
14104;SDS011;7130;52.484;4.766;2022-07-29T04:16:13;3.47;;;2.75;;
14104;SDS011;7130;52.484;4.766;2022-07-29T04:18:40;4.07;;;2.67;;
14104;SDS011;7130;52.484;4.766;2022-07-29T04:21:07;4.72;;;2.70;;
14104;SDS011;7130;52.484;4.766;2022-07-29T04:23:35;3.67;;;2.55;;
14104;SDS011;7130;52.484;4.766;2022-07-29T04:26:02;5.50;;;2.20;;
14104;SDS011;7130;52.484;4.766;2022-07-29T04:28:29;3.15;;;2.38;;
14104;SDS011;7130;52.484;4.766;2022-07-29T04:30:57;3.75;;;2.20;;
14104;SDS011;7130;52.484;4.766;2022-07-29T04:33:24;4.10;;;2.35;;
14104;SDS011;7130;52.484;4.766;2022-07-29T04:35:51;2.75;;;2.10;;
14104;SDS011;7130;52.484;4.766;2022-07-29T04:38:18;3.90;;;2.20;;
14104;SDS011;7130;52.484;4.766;2022-07-29T04:40:46;2.78;;;2.10;;
14104;SDS011;7130;52.484;4.766;2022-07-29T04:43:14;4.05;;;2.10;;
14104;SDS011;7130;52.484;4.766;2022-07-29T04:45:41;3.63;;;2.03;;
14104;SDS011;7130;52.484;4.766;2022-07-29T04:48:08;3.72;;;2.15;;
14104;SDS011;7130;52.484;4.766;2022-07-29T04:50:37;2.87;;;2.10;;
14104;SDS011;7130;52.484;4.766;2022-07-29T04:53:04;2.73;;;2.00;;
14104;SDS011;7130;52.484;4.766;2022-07-29T04:55:31;3.47;;;2.10;;
14104;SDS011;7130;52.484;4.766;2022-07-29T04:58:00;4.30;;;2.20;;
14104;SDS011;7130;52.484;4.766;2022-07-29T05:00:27;3.08;;;2.03;;
14104;SDS011;7130;52.484;4.766;2022-07-29T05:02:54;4.35;;;2.22;;
14104;SDS011;7130;52.484;4.766;2022-07-29T05:05:21;3.15;;;2.03;;
14104;SDS011;7130;52.484;4.766;2022-07-29T05:07:48;4.35;;;2.00;;
14104;SDS011;7130;52.484;4.766;2022-07-29T05:10:15;3.45;;;2.05;;
14104;SDS011;7130;52.484;4.766;2022-07-29T05:12:42;6.25;;;2.58;;
14104;SDS011;7130;52.484;4.766;2022-07-29T05:15:11;3.90;;;1.90;;
14104;SDS011;7130;52.484;4.766;2022-07-29T05:17:38;3.08;;;2.30;;
14104;SDS011;7130;52.484;4.766;2022-07-29T05:20:05;3.08;;;2.20;;
14104;SDS011;7130;52.484;4.766;2022-07-29T05:22:33;3.13;;;1.95;;
14104;SDS011;7130;52.484;4.766;2022-07-29T05:25:00;3.22;;;2.08;;
14104;SDS011;7130;52.484;4.766;2022-07-29T05:27:27;3.37;;;2.00;;
14104;SDS011;7130;52.484;4.766;2022-07-29T05:29:54;4.22;;;2.00;;
14104;SDS011;7130;52.484;4.766;2022-07-29T05:32:22;3.30;;;2.17;;
14104;SDS011;7130;52.484;4.766;2022-07-29T05:34:49;3.00;;;2.00;;
14104;SDS011;7130;52.484;4.766;2022-07-29T05:37:17;3.35;;;2.42;;
14104;SDS011;7130;52.484;4.766;2022-07-29T05:39:44;3.78;;;2.08;;
14104;SDS011;7130;52.484;4.766;2022-07-29T05:42:11;3.30;;;2.25;;
14104;SDS011;7130;52.484;4.766;2022-07-29T05:44:38;4.82;;;2.42;;
14104;SDS011;7130;52.484;4.766;2022-07-29T05:47:05;4.70;;;2.22;;
14104;SDS011;7130;52.484;4.766;2022-07-29T05:49:34;3.08;;;2.10;;
14104;SDS011;7130;52.484;4.766;2022-07-29T05:52:01;3.58;;;2.40;;
14104;SDS011;7130;52.484;4.766;2022-07-29T05:54:28;4.05;;;2.28;;
14104;SDS011;7130;52.484;4.766;2022-07-29T05:56:55;4.05;;;2.22;;
14104;SDS011;7130;52.484;4.766;2022-07-29T05:59:22;4.43;;;2.28;;
14104;SDS011;7130;52.484;4.766;2022-07-29T06:01:49;2.80;;;2.25;;
14104;SDS011;7130;52.484;4.766;2022-07-29T06:04:16;4.87;;;2.47;;
14104;SDS011;7130;52.484;4.766;2022-07-29T06:06:45;3.67;;;2.28;;
14104;SDS011;7130;52.484;4.766;2022-07-29T06:09:12;4.10;;;2.30;;
14104;SDS011;7130;52.484;4.766;2022-07-29T06:11:39;4.00;;;2.25;;
14104;SDS011;7130;52.484;4.766;2022-07-29T06:14:07;5.72;;;2.53;;
14104;SDS011;7130;52.484;4.766;2022-07-29T06:16:34;4.38;;;2.30;;
14104;SDS011;7130;52.484;4.766;2022-07-29T06:19:01;3.42;;;2.72;;
14104;SDS011;7130;52.484;4.766;2022-07-29T06:21:29;5.15;;;2.72;;
14104;SDS011;7130;52.484;4.766;2022-07-29T06:23:57;3.55;;;2.28;;
14104;SDS011;7130;52.484;4.766;2022-07-29T06:26:24;3.65;;;2.40;;
14104;SDS011;7130;52.484;4.766;2022-07-29T06:28:51;3.60;;;2.20;;
14104;SDS011;7130;52.484;4.766;2022-07-29T06:31:19;3.97;;;2.53;;
14104;SDS011;7130;52.484;4.766;2022-07-29T06:33:46;3.28;;;2.10;;
14104;SDS011;7130;52.484;4.766;2022-07-29T06:36:13;5.38;;;2.40;;
14104;SDS011;7130;52.484;4.766;2022-07-29T06:38:40;4.33;;;2.70;;
14104;SDS011;7130;52.484;4.766;2022-07-29T06:41:09;4.93;;;2.55;;
14104;SDS011;7130;52.484;4.766;2022-07-29T06:43:38;4.38;;;2.40;;
14104;SDS011;7130;52.484;4.766;2022-07-29T06:46:06;2.95;;;2.13;;
14104;SDS011;7130;52.484;4.766;2022-07-29T06:48:34;4.80;;;2.90;;
14104;SDS011;7130;52.484;4.766;2022-07-29T06:51:02;4.78;;;2.55;;
14104;SDS011;7130;52.484;4.766;2022-07-29T06:53:29;5.00;;;2.30;;
14104;SDS011;7130;52.484;4.766;2022-07-29T06:55:56;4.55;;;2.30;;
14104;SDS011;7130;52.484;4.766;2022-07-29T06:58:26;3.55;;;2.30;;
14104;SDS011;7130;52.484;4.766;2022-07-29T07:00:54;4.53;;;2.38;;
14104;SDS011;7130;52.484;4.766;2022-07-29T07:03:21;3.28;;;2.45;;
14104;SDS011;7130;52.484;4.766;2022-07-29T07:05:48;3.53;;;2.25;;
14104;SDS011;7130;52.484;4.766;2022-07-29T07:08:16;3.15;;;2.20;;
14104;SDS011;7130;52.484;4.766;2022-07-29T07:10:44;4.00;;;2.50;;
14104;SDS011;7130;52.484;4.766;2022-07-29T07:13:11;3.05;;;2.15;;
14104;SDS011;7130;52.484;4.766;2022-07-29T07:15:40;3.63;;;2.30;;
14104;SDS011;7130;52.484;4.766;2022-07-29T07:18:07;3.45;;;2.10;;
14104;SDS011;7130;52.484;4.766;2022-07-29T07:20:35;4.88;;;2.60;;
14104;SDS011;7130;52.484;4.766;2022-07-29T07:23:02;4.90;;;2.20;;
14104;SDS011;7130;52.484;4.766;2022-07-29T07:25:29;5.07;;;2.22;;
14104;SDS011;7130;52.484;4.766;2022-07-29T07:27:56;4.22;;;2.63;;
14104;SDS011;7130;52.484;4.766;2022-07-29T07:30:24;3.90;;;2.53;;
14104;SDS011;7130;52.484;4.766;2022-07-29T07:32:53;3.63;;;2.50;;
14104;SDS011;7130;52.484;4.766;2022-07-29T07:35:20;3.53;;;2.50;;
14104;SDS011;7130;52.484;4.766;2022-07-29T07:37:47;3.22;;;2.33;;
14104;SDS011;7130;52.484;4.766;2022-07-29T07:40:14;4.20;;;2.42;;
14104;SDS011;7130;52.484;4.766;2022-07-29T07:42:41;4.78;;;2.22;;
14104;SDS011;7130;52.484;4.766;2022-07-29T07:45:09;4.33;;;2.40;;
14104;SDS011;7130;52.484;4.766;2022-07-29T07:47:37;4.18;;;2.50;;
14104;SDS011;7130;52.484;4.766;2022-07-29T07:50:07;2.47;;;2.25;;
14104;SDS011;7130;52.484;4.766;2022-07-29T07:52:34;5.00;;;2.58;;
14104;SDS011;7130;52.484;4.766;2022-07-29T07:55:01;3.90;;;2.45;;
14104;SDS011;7130;52.484;4.766;2022-07-29T07:57:28;3.97;;;2.40;;
14104;SDS011;7130;52.484;4.766;2022-07-29T07:59:56;6.93;;;2.63;;
14104;SDS011;7130;52.484;4.766;2022-07-29T08:02:23;3.42;;;2.50;;
14104;SDS011;7130;52.484;4.766;2022-07-29T08:04:50;3.65;;;2.58;;
14104;SDS011;7130;52.484;4.766;2022-07-29T08:07:18;3.72;;;2.63;;
14104;SDS011;7130;52.484;4.766;2022-07-29T08:09:45;4.43;;;2.40;;
14104;SDS011;7130;52.484;4.766;2022-07-29T08:12:12;2.97;;;2.47;;
14104;SDS011;7130;52.484;4.766;2022-07-29T08:14:39;3.47;;;2.30;;
14104;SDS011;7130;52.484;4.766;2022-07-29T08:17:07;3.70;;;2.47;;
14104;SDS011;7130;52.484;4.766;2022-07-29T08:19:34;4.88;;;2.50;;
14104;SDS011;7130;52.484;4.766;2022-07-29T08:22:02;5.95;;;2.90;;
14104;SDS011;7130;52.484;4.766;2022-07-29T08:24:30;3.53;;;2.40;;
14104;SDS011;7130;52.484;4.766;2022-07-29T08:27:17;5.53;;;2.70;;
14104;SDS011;7130;52.484;4.766;2022-07-29T08:29:44;3.95;;;2.60;;
14104;SDS011;7130;52.484;4.766;2022-07-29T08:32:11;2.55;;;2.22;;
14104;SDS011;7130;52.484;4.766;2022-07-29T08:34:38;4.18;;;2.67;;
14104;SDS011;7130;52.484;4.766;2022-07-29T08:37:05;4.07;;;2.70;;
14104;SDS011;7130;52.484;4.766;2022-07-29T08:39:34;5.37;;;3.00;;
14104;SDS011;7130;52.484;4.766;2022-07-29T08:42:01;3.97;;;2.83;;
14104;SDS011;7130;52.484;4.766;2022-07-29T08:44:28;4.28;;;2.70;;
14104;SDS011;7130;52.484;4.766;2022-07-29T08:46:55;3.67;;;2.70;;
14104;SDS011;7130;52.484;4.766;2022-07-29T08:49:22;5.00;;;2.75;;
14104;SDS011;7130;52.484;4.766;2022-07-29T08:51:49;5.32;;;2.35;;
14104;SDS011;7130;52.484;4.766;2022-07-29T08:54:17;5.85;;;2.70;;
14104;SDS011;7130;52.484;4.766;2022-07-29T08:56:46;4.47;;;2.50;;
14104;SDS011;7130;52.484;4.766;2022-07-29T08:59:15;3.85;;;2.20;;
14104;SDS011;7130;52.484;4.766;2022-07-29T09:01:42;3.65;;;2.70;;
14104;SDS011;7130;52.484;4.766;2022-07-29T09:04:10;4.00;;;2.60;;
14104;SDS011;7130;52.484;4.766;2022-07-29T09:06:39;4.07;;;2.78;;
14104;SDS011;7130;52.484;4.766;2022-07-29T09:09:08;4.60;;;2.78;;
14104;SDS011;7130;52.484;4.766;2022-07-29T09:11:35;4.03;;;2.60;;
14104;SDS011;7130;52.484;4.766;2022-07-29T09:14:04;3.97;;;2.50;;
14104;SDS011;7130;52.484;4.766;2022-07-29T09:19:20;4.10;;;2.80;;
14104;SDS011;7130;52.484;4.766;2022-07-29T09:21:47;3.83;;;2.33;;
14104;SDS011;7130;52.484;4.766;2022-07-29T09:24:24;4.07;;;3.00;;
14104;SDS011;7130;52.484;4.766;2022-07-29T09:26:51;5.60;;;3.00;;
14104;SDS011;7130;52.484;4.766;2022-07-29T09:29:20;7.75;;;2.60;;
14104;SDS011;7130;52.484;4.766;2022-07-29T09:31:48;4.13;;;2.27;;
14104;SDS011;7130;52.484;4.766;2022-07-29T09:34:16;4.75;;;2.92;;
14104;SDS011;7130;52.484;4.766;2022-07-29T09:36:44;4.50;;;2.90;;
14104;SDS011;7130;52.484;4.766;2022-07-29T09:39:11;4.40;;;2.80;;
14104;SDS011;7130;52.484;4.766;2022-07-29T09:41:45;4.38;;;2.85;;
14104;SDS011;7130;52.484;4.766;2022-07-29T09:44:12;4.35;;;2.78;;
14104;SDS011;7130;52.484;4.766;2022-07-29T09:46:41;4.65;;;3.08;;
14104;SDS011;7130;52.484;4.766;2022-07-29T09:49:18;4.35;;;2.95;;
14104;SDS011;7130;52.484;4.766;2022-07-29T09:51:45;4.32;;;2.80;;
14104;SDS011;7130;52.484;4.766;2022-07-29T09:54:22;5.43;;;2.85;;
14104;SDS011;7130;52.484;4.766;2022-07-29T09:56:50;4.90;;;3.08;;
14104;SDS011;7130;52.484;4.766;2022-07-29T09:59:18;6.55;;;3.00;;
14104;SDS011;7130;52.484;4.766;2022-07-29T10:01:50;5.82;;;3.10;;
14104;SDS011;7130;52.484;4.766;2022-07-29T10:04:17;7.45;;;3.00;;
14104;SDS011;7130;52.484;4.766;2022-07-29T10:06:58;4.93;;;2.78;;
14104;SDS011;7130;52.484;4.766;2022-07-29T10:09:25;8.57;;;3.20;;
14104;SDS011;7130;52.484;4.766;2022-07-29T10:12:02;3.90;;;3.05;;
14104;SDS011;7130;52.484;4.766;2022-07-29T10:14:30;7.15;;;3.08;;
14104;SDS011;7130;52.484;4.766;2022-07-29T10:17:00;4.03;;;2.58;;
14104;SDS011;7130;52.484;4.766;2022-07-29T10:19:28;4.70;;;2.75;;
14104;SDS011;7130;52.484;4.766;2022-07-29T10:21:56;3.88;;;2.85;;
14104;SDS011;7130;52.484;4.766;2022-07-29T10:24:24;3.22;;;2.38;;
14104;SDS011;7130;52.484;4.766;2022-07-29T10:26:51;4.80;;;2.95;;
14104;SDS011;7130;52.484;4.766;2022-07-29T10:29:19;5.43;;;2.85;;
14104;SDS011;7130;52.484;4.766;2022-07-29T10:31:48;5.45;;;2.97;;
14104;SDS011;7130;52.484;4.766;2022-07-29T10:34:20;4.00;;;2.83;;
14104;SDS011;7130;52.484;4.766;2022-07-29T10:36:51;4.00;;;3.13;;
14104;SDS011;7130;52.484;4.766;2022-07-29T10:39:25;6.10;;;2.55;;
14104;SDS011;7130;52.484;4.766;2022-07-29T10:42:06;4.40;;;2.80;;
14104;SDS011;7130;52.484;4.766;2022-07-29T10:44:39;4.35;;;2.83;;
14104;SDS011;7130;52.484;4.766;2022-07-29T10:47:06;5.32;;;2.92;;
14104;SDS011;7130;52.484;4.766;2022-07-29T10:49:34;3.87;;;2.40;;
14104;SDS011;7130;52.484;4.766;2022-07-29T10:52:05;4.75;;;2.40;;
14104;SDS011;7130;52.484;4.766;2022-07-29T10:54:37;4.03;;;2.38;;
14104;SDS011;7130;52.484;4.766;2022-07-29T10:57:11;4.78;;;2.33;;
14104;SDS011;7130;52.484;4.766;2022-07-29T10:59:38;11.98;;;3.42;;
14104;SDS011;7130;52.484;4.766;2022-07-29T11:05:01;4.50;;;2.30;;
14104;SDS011;7130;52.484;4.766;2022-07-29T11:07:29;4.22;;;2.47;;
14104;SDS011;7130;52.484;4.766;2022-07-29T11:12:46;5.15;;;2.88;;
14104;SDS011;7130;52.484;4.766;2022-07-29T11:15:14;5.78;;;2.65;;
14104;SDS011;7130;52.484;4.766;2022-07-29T11:20:42;5.70;;;2.70;;
14104;SDS011;7130;52.484;4.766;2022-07-29T11:23:20;5.18;;;2.55;;
14104;SDS011;7130;52.484;4.766;2022-07-29T11:28:34;3.83;;;2.50;;
14104;SDS011;7130;52.484;4.766;2022-07-29T11:31:02;4.47;;;3.00;;
14104;SDS011;7130;52.484;4.766;2022-07-29T11:33:30;4.07;;;2.75;;
14104;SDS011;7130;52.484;4.766;2022-07-29T11:36:08;4.90;;;2.92;;
14104;SDS011;7130;52.484;4.766;2022-07-29T11:38:36;5.43;;;3.03;;
14104;SDS011;7130;52.484;4.766;2022-07-29T11:41:22;3.58;;;2.83;;
14104;SDS011;7130;52.484;4.766;2022-07-29T11:43:49;4.78;;;2.58;;
14104;SDS011;7130;52.484;4.766;2022-07-29T11:46:18;7.13;;;3.00;;
14104;SDS011;7130;52.484;4.766;2022-07-29T11:49:05;4.85;;;2.50;;
14104;SDS011;7130;52.484;4.766;2022-07-29T11:51:34;7.03;;;2.70;;
14104;SDS011;7130;52.484;4.766;2022-07-29T11:54:01;6.05;;;2.28;;
14104;SDS011;7130;52.484;4.766;2022-07-29T11:56:29;4.18;;;2.17;;
14104;SDS011;7130;52.484;4.766;2022-07-29T11:59:02;4.53;;;2.60;;
14104;SDS011;7130;52.484;4.766;2022-07-29T12:01:30;4.03;;;2.42;;
14104;SDS011;7130;52.484;4.766;2022-07-29T12:04:02;4.65;;;2.60;;
14104;SDS011;7130;52.484;4.766;2022-07-29T12:06:29;5.00;;;2.80;;
14104;SDS011;7130;52.484;4.766;2022-07-29T12:08:57;4.32;;;2.33;;
14104;SDS011;7130;52.484;4.766;2022-07-29T12:11:25;2.58;;;1.85;;
14104;SDS011;7130;52.484;4.766;2022-07-29T12:13:52;3.50;;;1.95;;
14104;SDS011;7130;52.484;4.766;2022-07-29T12:16:20;5.90;;;2.97;;
14104;SDS011;7130;52.484;4.766;2022-07-29T12:18:54;4.80;;;2.30;;
14104;SDS011;7130;52.484;4.766;2022-07-29T12:21:21;4.85;;;2.55;;
14104;SDS011;7130;52.484;4.766;2022-07-29T12:23:53;5.88;;;2.85;;
14104;SDS011;7130;52.484;4.766;2022-07-29T12:26:22;5.88;;;2.90;;
14104;SDS011;7130;52.484;4.766;2022-07-29T12:28:49;4.88;;;2.88;;
14104;SDS011;7130;52.484;4.766;2022-07-29T12:31:16;4.40;;;2.42;;
14104;SDS011;7130;52.484;4.766;2022-07-29T12:33:43;4.63;;;2.03;;
14104;SDS011;7130;52.484;4.766;2022-07-29T12:36:18;3.42;;;2.20;;
14104;SDS011;7130;52.484;4.766;2022-07-29T12:38:46;6.53;;;2.80;;
14104;SDS011;7130;52.484;4.766;2022-07-29T12:41:13;4.85;;;2.67;;
14104;SDS011;7130;52.484;4.766;2022-07-29T12:43:52;4.07;;;2.30;;
14104;SDS011;7130;52.484;4.766;2022-07-29T12:46:19;3.65;;;2.30;;
14104;SDS011;7130;52.484;4.766;2022-07-29T12:48:49;3.67;;;2.70;;
14104;SDS011;7130;52.484;4.766;2022-07-29T12:51:25;4.65;;;2.42;;
14104;SDS011;7130;52.484;4.766;2022-07-29T12:54:01;4.05;;;2.80;;
14104;SDS011;7130;52.484;4.766;2022-07-29T12:56:29;4.35;;;2.05;;
14104;SDS011;7130;52.484;4.766;2022-07-29T12:58:57;4.68;;;2.53;;
14104;SDS011;7130;52.484;4.766;2022-07-29T13:01:24;4.33;;;2.33;;
14104;SDS011;7130;52.484;4.766;2022-07-29T13:03:52;4.88;;;2.65;;
14104;SDS011;7130;52.484;4.766;2022-07-29T13:06:31;6.53;;;3.08;;
14104;SDS011;7130;52.484;4.766;2022-07-29T13:09:03;5.40;;;2.92;;
14104;SDS011;7130;52.484;4.766;2022-07-29T13:11:31;4.47;;;2.45;;
14104;SDS011;7130;52.484;4.766;2022-07-29T13:13:59;3.75;;;2.60;;
14104;SDS011;7130;52.484;4.766;2022-07-29T13:16:26;5.18;;;2.80;;
14104;SDS011;7130;52.484;4.766;2022-07-29T13:19:07;4.75;;;2.65;;
14104;SDS011;7130;52.484;4.766;2022-07-29T13:21:34;5.43;;;2.50;;
14104;SDS011;7130;52.484;4.766;2022-07-29T13:24:01;4.15;;;2.55;;
14104;SDS011;7130;52.484;4.766;2022-07-29T13:26:28;3.30;;;2.42;;
14104;SDS011;7130;52.484;4.766;2022-07-29T13:28:55;5.28;;;2.40;;
14104;SDS011;7130;52.484;4.766;2022-07-29T13:31:24;5.25;;;2.38;;
14104;SDS011;7130;52.484;4.766;2022-07-29T13:33:51;6.18;;;2.70;;
14104;SDS011;7130;52.484;4.766;2022-07-29T13:36:18;3.78;;;2.58;;
14104;SDS011;7130;52.484;4.766;2022-07-29T13:38:45;4.63;;;2.63;;
14104;SDS011;7130;52.484;4.766;2022-07-29T13:41:12;3.38;;;2.10;;
14104;SDS011;7130;52.484;4.766;2022-07-29T13:43:39;4.65;;;2.20;;
14104;SDS011;7130;52.484;4.766;2022-07-29T13:46:06;4.70;;;2.30;;
14104;SDS011;7130;52.484;4.766;2022-07-29T13:48:35;2.63;;;1.83;;
14104;SDS011;7130;52.484;4.766;2022-07-29T13:51:02;3.30;;;1.92;;
14104;SDS011;7130;52.484;4.766;2022-07-29T13:53:29;3.35;;;2.03;;
14104;SDS011;7130;52.484;4.766;2022-07-29T13:55:56;3.50;;;2.22;;
14104;SDS011;7130;52.484;4.766;2022-07-29T13:58:23;3.95;;;2.30;;
14104;SDS011;7130;52.484;4.766;2022-07-29T14:00:50;6.05;;;2.70;;
14104;SDS011;7130;52.484;4.766;2022-07-29T14:03:17;3.35;;;2.10;;
14104;SDS011;7130;52.484;4.766;2022-07-29T14:05:46;4.40;;;2.13;;
14104;SDS011;7130;52.484;4.766;2022-07-29T14:08:13;6.18;;;2.40;;
14104;SDS011;7130;52.484;4.766;2022-07-29T14:10:40;4.28;;;2.40;;
14104;SDS011;7130;52.484;4.766;2022-07-29T14:13:07;3.55;;;1.98;;
14104;SDS011;7130;52.484;4.766;2022-07-29T14:15:34;3.05;;;1.98;;
14104;SDS011;7130;52.484;4.766;2022-07-29T14:18:01;4.47;;;2.45;;
14104;SDS011;7130;52.484;4.766;2022-07-29T14:20:28;6.25;;;2.63;;
14104;SDS011;7130;52.484;4.766;2022-07-29T14:22:57;3.28;;;2.22;;
14104;SDS011;7130;52.484;4.766;2022-07-29T14:25:24;4.73;;;2.60;;
14104;SDS011;7130;52.484;4.766;2022-07-29T14:27:51;5.80;;;3.23;;
14104;SDS011;7130;52.484;4.766;2022-07-29T14:30:19;4.82;;;2.33;;
14104;SDS011;7130;52.484;4.766;2022-07-29T14:32:46;4.65;;;2.90;;
14104;SDS011;7130;52.484;4.766;2022-07-29T14:35:13;3.92;;;2.10;;
14104;SDS011;7130;52.484;4.766;2022-07-29T14:37:40;4.80;;;2.33;;
14104;SDS011;7130;52.484;4.766;2022-07-29T14:40:10;4.28;;;2.33;;
14104;SDS011;7130;52.484;4.766;2022-07-29T14:42:37;7.45;;;2.60;;
14104;SDS011;7130;52.484;4.766;2022-07-29T14:45:05;3.63;;;1.90;;
14104;SDS011;7130;52.484;4.766;2022-07-29T14:47:32;3.92;;;2.65;;
14104;SDS011;7130;52.484;4.766;2022-07-29T14:49:59;5.18;;;2.50;;
14104;SDS011;7130;52.484;4.766;2022-07-29T14:52:26;4.53;;;2.22;;
14104;SDS011;7130;52.484;4.766;2022-07-29T14:54:53;6.53;;;2.88;;
14104;SDS011;7130;52.484;4.766;2022-07-29T14:57:22;4.10;;;2.13;;
14104;SDS011;7130;52.484;4.766;2022-07-29T14:59:49;3.20;;;2.08;;
14104;SDS011;7130;52.484;4.766;2022-07-29T15:02:16;3.10;;;2.10;;
14104;SDS011;7130;52.484;4.766;2022-07-29T15:04:44;5.38;;;2.00;;
14104;SDS011;7130;52.484;4.766;2022-07-29T15:07:12;2.55;;;2.10;;
14104;SDS011;7130;52.484;4.766;2022-07-29T15:09:40;3.13;;;1.95;;
14104;SDS011;7130;52.484;4.766;2022-07-29T15:12:07;6.40;;;2.63;;
14104;SDS011;7130;52.484;4.766;2022-07-29T15:14:37;7.68;;;2.33;;
14104;SDS011;7130;52.484;4.766;2022-07-29T15:17:09;3.80;;;2.40;;
14104;SDS011;7130;52.484;4.766;2022-07-29T15:19:36;4.95;;;2.58;;
14104;SDS011;7130;52.484;4.766;2022-07-29T15:22:06;5.15;;;2.97;;